Weather at Indira Gandhi International Airport

Public forecast

Using degrees Celsius for public forecast. Weather courtesy of forecast.io.

Current aviation weather report (METAR) for Indira Gandhi International Airport

Retrieved 2021/04/15 07:30 UTC (16 minutes ago):

VIDP 150730Z 31007G17KT 2200 DU FEW100 38/04 Q1009 NOSIG

Aviation forecast (TAF) for Indira Gandhi International Airport

Retrieved 2021/04/15 06:00 UTC (2 hours ago):

TAF VIDP 150500Z 1506/1612 26010KT 2800 DU SCT100 BECMG 1509/1511 29015G25KT 3500 BLDU BECMG 1515/1517 26008KT 3000 HZ FEW040 SCT100 BECMG 1523/1601 1800 HZ BECMG 1604/1606 29008KT 2800 HZ SCT030 BKN100 BECMG 1609/1611 23010KT 4000 HZ TEMPO 1609/1612 26020G30KT 2000 DS TSRA FEW035CB